sensor_id;sensor_type;location;lat;lon;timestamp;P1;durP1;ratioP1;P2;durP2;ratioP2
78484;SDS011;67773;50.806;8.776;2024-03-08T00:02:13;23.67;;;12.15;;
78484;SDS011;67773;50.806;8.776;2024-03-08T00:04:38;26.13;;;12.35;;
78484;SDS011;67773;50.806;8.776;2024-03-08T00:07:04;25.92;;;12.45;;
78484;SDS011;67773;50.806;8.776;2024-03-08T00:09:29;27.43;;;12.60;;
78484;SDS011;67773;50.806;8.776;2024-03-08T00:11:55;33.78;;;13.32;;
78484;SDS011;67773;50.806;8.776;2024-03-08T00:14:21;28.45;;;13.73;;
78484;SDS011;67773;50.806;8.776;2024-03-08T00:16:46;29.10;;;13.77;;
78484;SDS011;67773;50.806;8.776;2024-03-08T00:19:12;25.90;;;12.65;;
78484;SDS011;67773;50.806;8.776;2024-03-08T00:21:37;26.50;;;12.57;;
78484;SDS011;67773;50.806;8.776;2024-03-08T00:24:03;26.08;;;13.18;;
78484;SDS011;67773;50.806;8.776;2024-03-08T00:26:28;27.52;;;13.10;;
78484;SDS011;67773;50.806;8.776;2024-03-08T00:28:55;26.63;;;12.85;;
78484;SDS011;67773;50.806;8.776;2024-03-08T00:31:21;25.98;;;13.40;;
78484;SDS011;67773;50.806;8.776;2024-03-08T00:33:46;24.85;;;12.73;;
78484;SDS011;67773;50.806;8.776;2024-03-08T00:36:12;24.50;;;13.70;;
78484;SDS011;67773;50.806;8.776;2024-03-08T00:38:37;26.98;;;12.98;;
78484;SDS011;67773;50.806;8.776;2024-03-08T00:41:03;28.00;;;13.55;;
78484;SDS011;67773;50.806;8.776;2024-03-08T00:43:28;28.05;;;12.35;;
78484;SDS011;67773;50.806;8.776;2024-03-08T00:45:55;28.73;;;13.13;;
78484;SDS011;67773;50.806;8.776;2024-03-08T00:48:20;26.58;;;13.88;;
78484;SDS011;67773;50.806;8.776;2024-03-08T00:50:46;27.73;;;13.05;;
78484;SDS011;67773;50.806;8.776;2024-03-08T00:53:11;27.20;;;12.70;;
78484;SDS011;67773;50.806;8.776;2024-03-08T00:55:37;27.33;;;13.75;;
78484;SDS011;67773;50.806;8.776;2024-03-08T00:58:03;28.25;;;13.48;;
78484;SDS011;67773;50.806;8.776;2024-03-08T01:00:29;26.80;;;12.43;;
78484;SDS011;67773;50.806;8.776;2024-03-08T01:02:54;28.63;;;13.50;;
78484;SDS011;67773;50.806;8.776;2024-03-08T01:05:20;30.27;;;14.07;;
78484;SDS011;67773;50.806;8.776;2024-03-08T01:07:46;32.90;;;14.57;;
78484;SDS011;67773;50.806;8.776;2024-03-08T01:10:11;23.90;;;12.93;;
78484;SDS011;67773;50.806;8.776;2024-03-08T01:12:37;27.58;;;13.27;;
78484;SDS011;67773;50.806;8.776;2024-03-08T01:15:04;27.02;;;13.70;;
78484;SDS011;67773;50.806;8.776;2024-03-08T01:17:29;25.60;;;13.10;;
78484;SDS011;67773;50.806;8.776;2024-03-08T01:19:55;29.13;;;13.68;;
78484;SDS011;67773;50.806;8.776;2024-03-08T01:22:21;31.30;;;14.90;;
78484;SDS011;67773;50.806;8.776;2024-03-08T01:24:47;26.38;;;13.85;;
78484;SDS011;67773;50.806;8.776;2024-03-08T01:27:13;24.05;;;12.75;;
78484;SDS011;67773;50.806;8.776;2024-03-08T01:29:38;28.03;;;13.77;;
78484;SDS011;67773;50.806;8.776;2024-03-08T01:32:03;26.27;;;13.03;;
78484;SDS011;67773;50.806;8.776;2024-03-08T01:34:29;29.02;;;14.00;;
78484;SDS011;67773;50.806;8.776;2024-03-08T01:36:54;30.35;;;14.43;;
78484;SDS011;67773;50.806;8.776;2024-03-08T01:39:23;31.92;;;15.00;;
78484;SDS011;67773;50.806;8.776;2024-03-08T01:41:48;30.40;;;14.60;;
78484;SDS011;67773;50.806;8.776;2024-03-08T01:44:13;26.57;;;13.10;;
78484;SDS011;67773;50.806;8.776;2024-03-08T01:46:43;26.85;;;14.07;;
78484;SDS011;67773;50.806;8.776;2024-03-08T01:49:17;29.17;;;14.32;;
78484;SDS011;67773;50.806;8.776;2024-03-08T01:51:43;25.90;;;14.07;;
78484;SDS011;67773;50.806;8.776;2024-03-08T01:54:08;30.95;;;14.52;;
78484;SDS011;67773;50.806;8.776;2024-03-08T01:56:35;29.17;;;14.02;;
78484;SDS011;67773;50.806;8.776;2024-03-08T01:59:02;28.90;;;14.70;;
78484;SDS011;67773;50.806;8.776;2024-03-08T02:01:28;28.25;;;13.23;;
78484;SDS011;67773;50.806;8.776;2024-03-08T02:03:54;32.03;;;15.27;;
78484;SDS011;67773;50.806;8.776;2024-03-08T02:06:19;29.05;;;13.75;;
78484;SDS011;67773;50.806;8.776;2024-03-08T02:08:45;29.23;;;15.13;;
78484;SDS011;67773;50.806;8.776;2024-03-08T02:11:11;29.70;;;13.70;;
78484;SDS011;67773;50.806;8.776;2024-03-08T02:13:37;25.83;;;13.40;;
78484;SDS011;67773;50.806;8.776;2024-03-08T02:16:03;26.20;;;13.73;;
78484;SDS011;67773;50.806;8.776;2024-03-08T02:18:31;28.50;;;13.73;;
78484;SDS011;67773;50.806;8.776;2024-03-08T02:20:59;31.65;;;15.00;;
78484;SDS011;67773;50.806;8.776;2024-03-08T02:23:27;28.27;;;14.73;;
78484;SDS011;67773;50.806;8.776;2024-03-08T02:25:53;27.52;;;14.07;;
78484;SDS011;67773;50.806;8.776;2024-03-08T02:28:20;27.58;;;14.23;;
78484;SDS011;67773;50.806;8.776;2024-03-08T02:30:46;31.08;;;15.23;;
78484;SDS011;67773;50.806;8.776;2024-03-08T02:33:13;32.17;;;15.23;;
78484;SDS011;67773;50.806;8.776;2024-03-08T02:35:43;30.30;;;15.15;;
78484;SDS011;67773;50.806;8.776;2024-03-08T02:38:15;33.85;;;14.20;;
78484;SDS011;67773;50.806;8.776;2024-03-08T02:40:44;31.42;;;14.05;;
78484;SDS011;67773;50.806;8.776;2024-03-08T02:43:11;30.20;;;14.75;;
78484;SDS011;67773;50.806;8.776;2024-03-08T02:45:38;33.40;;;15.82;;
78484;SDS011;67773;50.806;8.776;2024-03-08T02:48:03;30.67;;;15.35;;
78484;SDS011;67773;50.806;8.776;2024-03-08T02:50:31;27.85;;;14.23;;
78484;SDS011;67773;50.806;8.776;2024-03-08T02:52:57;33.17;;;16.30;;
78484;SDS011;67773;50.806;8.776;2024-03-08T02:55:22;29.30;;;13.97;;
78484;SDS011;67773;50.806;8.776;2024-03-08T02:57:47;29.60;;;14.23;;
78484;SDS011;67773;50.806;8.776;2024-03-08T03:00:13;31.80;;;14.53;;
78484;SDS011;67773;50.806;8.776;2024-03-08T03:02:38;34.10;;;14.73;;
78484;SDS011;67773;50.806;8.776;2024-03-08T03:05:04;29.42;;;13.80;;
78484;SDS011;67773;50.806;8.776;2024-03-08T03:07:34;29.83;;;13.50;;
78484;SDS011;67773;50.806;8.776;2024-03-08T03:10:00;34.55;;;14.85;;
78484;SDS011;67773;50.806;8.776;2024-03-08T03:12:26;31.17;;;15.07;;
78484;SDS011;67773;50.806;8.776;2024-03-08T03:14:52;37.00;;;15.63;;
78484;SDS011;67773;50.806;8.776;2024-03-08T03:17:18;29.10;;;14.40;;
78484;SDS011;67773;50.806;8.776;2024-03-08T03:19:43;29.90;;;14.03;;
78484;SDS011;67773;50.806;8.776;2024-03-08T03:22:08;33.10;;;14.02;;
78484;SDS011;67773;50.806;8.776;2024-03-08T03:24:35;32.05;;;14.63;;
78484;SDS011;67773;50.806;8.776;2024-03-08T03:27:03;30.55;;;13.80;;
78484;SDS011;67773;50.806;8.776;2024-03-08T03:32:00;30.13;;;13.67;;
78484;SDS011;67773;50.806;8.776;2024-03-08T03:34:27;35.83;;;14.73;;
78484;SDS011;67773;50.806;8.776;2024-03-08T03:36:54;30.25;;;13.77;;
78484;SDS011;67773;50.806;8.776;2024-03-08T03:39:20;32.20;;;14.00;;
78484;SDS011;67773;50.806;8.776;2024-03-08T03:41:47;30.52;;;13.73;;
78484;SDS011;67773;50.806;8.776;2024-03-08T03:44:16;32.28;;;14.98;;
78484;SDS011;67773;50.806;8.776;2024-03-08T03:46:42;29.13;;;14.05;;
78484;SDS011;67773;50.806;8.776;2024-03-08T03:49:10;29.77;;;14.07;;
78484;SDS011;67773;50.806;8.776;2024-03-08T03:51:36;31.13;;;14.80;;
78484;SDS011;67773;50.806;8.776;2024-03-08T03:54:01;29.57;;;14.60;;
78484;SDS011;67773;50.806;8.776;2024-03-08T03:56:28;31.85;;;15.18;;
78484;SDS011;67773;50.806;8.776;2024-03-08T03:58:54;35.00;;;15.80;;
78484;SDS011;67773;50.806;8.776;2024-03-08T04:01:19;34.33;;;14.02;;
78484;SDS011;67773;50.806;8.776;2024-03-08T04:03:44;31.50;;;13.57;;
78484;SDS011;67773;50.806;8.776;2024-03-08T04:06:10;33.40;;;14.47;;
78484;SDS011;67773;50.806;8.776;2024-03-08T04:08:35;31.52;;;15.32;;
78484;SDS011;67773;50.806;8.776;2024-03-08T04:11:01;30.20;;;14.23;;
78484;SDS011;67773;50.806;8.776;2024-03-08T04:13:26;32.00;;;14.05;;
78484;SDS011;67773;50.806;8.776;2024-03-08T04:15:52;33.65;;;14.43;;
78484;SDS011;67773;50.806;8.776;2024-03-08T04:18:17;34.47;;;15.03;;
78484;SDS011;67773;50.806;8.776;2024-03-08T04:20:44;32.42;;;15.02;;
78484;SDS011;67773;50.806;8.776;2024-03-08T04:23:09;32.38;;;14.77;;
78484;SDS011;67773;50.806;8.776;2024-03-08T04:25:34;28.93;;;13.33;;
78484;SDS011;67773;50.806;8.776;2024-03-08T04:28:00;30.40;;;15.67;;
78484;SDS011;67773;50.806;8.776;2024-03-08T04:30:25;31.27;;;15.10;;
78484;SDS011;67773;50.806;8.776;2024-03-08T04:32:53;32.30;;;14.55;;
78484;SDS011;67773;50.806;8.776;2024-03-08T04:35:18;28.70;;;14.23;;
78484;SDS011;67773;50.806;8.776;2024-03-08T04:37:45;32.20;;;14.80;;
78484;SDS011;67773;50.806;8.776;2024-03-08T04:40:10;32.20;;;15.88;;
78484;SDS011;67773;50.806;8.776;2024-03-08T04:42:42;35.63;;;15.15;;
78484;SDS011;67773;50.806;8.776;2024-03-08T04:45:08;31.40;;;15.13;;
78484;SDS011;67773;50.806;8.776;2024-03-08T04:47:35;31.83;;;14.68;;
78484;SDS011;67773;50.806;8.776;2024-03-08T04:50:02;34.28;;;15.20;;
78484;SDS011;67773;50.806;8.776;2024-03-08T04:52:27;30.42;;;13.68;;
78484;SDS011;67773;50.806;8.776;2024-03-08T04:54:53;32.75;;;14.63;;
78484;SDS011;67773;50.806;8.776;2024-03-08T04:57:18;33.17;;;14.40;;
78484;SDS011;67773;50.806;8.776;2024-03-08T04:59:44;31.13;;;14.47;;
78484;SDS011;67773;50.806;8.776;2024-03-08T05:02:09;33.23;;;15.03;;
78484;SDS011;67773;50.806;8.776;2024-03-08T05:04:34;32.90;;;15.63;;
78484;SDS011;67773;50.806;8.776;2024-03-08T05:07:00;32.60;;;14.93;;
78484;SDS011;67773;50.806;8.776;2024-03-08T05:09:26;34.53;;;15.35;;
78484;SDS011;67773;50.806;8.776;2024-03-08T05:11:54;33.13;;;15.15;;
78484;SDS011;67773;50.806;8.776;2024-03-08T05:14:19;31.33;;;14.25;;
78484;SDS011;67773;50.806;8.776;2024-03-08T05:16:45;32.95;;;15.70;;
78484;SDS011;67773;50.806;8.776;2024-03-08T05:19:17;31.85;;;14.52;;
78484;SDS011;67773;50.806;8.776;2024-03-08T05:21:44;37.33;;;16.35;;
78484;SDS011;67773;50.806;8.776;2024-03-08T05:24:10;33.55;;;15.02;;
78484;SDS011;67773;50.806;8.776;2024-03-08T05:26:35;30.40;;;14.10;;
78484;SDS011;67773;50.806;8.776;2024-03-08T05:29:02;33.00;;;15.93;;
78484;SDS011;67773;50.806;8.776;2024-03-08T05:31:28;34.60;;;15.68;;
78484;SDS011;67773;50.806;8.776;2024-03-08T05:33:56;32.33;;;16.13;;
78484;SDS011;67773;50.806;8.776;2024-03-08T05:36:21;34.38;;;15.68;;
78484;SDS011;67773;50.806;8.776;2024-03-08T05:38:46;34.08;;;15.23;;
78484;SDS011;67773;50.806;8.776;2024-03-08T05:41:12;30.80;;;13.17;;
78484;SDS011;67773;50.806;8.776;2024-03-08T05:43:37;29.80;;;14.23;;
78484;SDS011;67773;50.806;8.776;2024-03-08T05:46:03;31.33;;;15.10;;
78484;SDS011;67773;50.806;8.776;2024-03-08T05:48:32;33.47;;;15.43;;
78484;SDS011;67773;50.806;8.776;2024-03-08T05:50:57;34.50;;;15.52;;
78484;SDS011;67773;50.806;8.776;2024-03-08T05:53:23;32.35;;;15.07;;
78484;SDS011;67773;50.806;8.776;2024-03-08T05:55:48;30.73;;;14.57;;
78484;SDS011;67773;50.806;8.776;2024-03-08T05:58:14;33.75;;;15.30;;
78484;SDS011;67773;50.806;8.776;2024-03-08T06:00:40;34.63;;;16.02;;
78484;SDS011;67773;50.806;8.776;2024-03-08T06:03:05;33.30;;;15.37;;
78484;SDS011;67773;50.806;8.776;2024-03-08T06:05:30;33.53;;;15.33;;
78484;SDS011;67773;50.806;8.776;2024-03-08T06:07:56;38.08;;;15.70;;
78484;SDS011;67773;50.806;8.776;2024-03-08T06:10:21;32.33;;;14.33;;
78484;SDS011;67773;50.806;8.776;2024-03-08T06:12:47;33.72;;;14.73;;
78484;SDS011;67773;50.806;8.776;2024-03-08T06:15:12;35.43;;;16.07;;
78484;SDS011;67773;50.806;8.776;2024-03-08T06:17:41;34.55;;;16.15;;
78484;SDS011;67773;50.806;8.776;2024-03-08T06:20:07;32.47;;;14.40;;
78484;SDS011;67773;50.806;8.776;2024-03-08T06:22:41;36.35;;;15.93;;
78484;SDS011;67773;50.806;8.776;2024-03-08T06:25:07;36.90;;;15.98;;
78484;SDS011;67773;50.806;8.776;2024-03-08T06:27:40;32.00;;;15.50;;
78484;SDS011;67773;50.806;8.776;2024-03-08T06:30:07;33.65;;;15.10;;
78484;SDS011;67773;50.806;8.776;2024-03-08T06:32:34;33.30;;;15.65;;
78484;SDS011;67773;50.806;8.776;2024-03-08T06:35:03;33.90;;;14.15;;
78484;SDS011;67773;50.806;8.776;2024-03-08T06:37:33;33.95;;;15.25;;
78484;SDS011;67773;50.806;8.776;2024-03-08T06:39:59;32.38;;;15.55;;
78484;SDS011;67773;50.806;8.776;2024-03-08T06:42:25;36.08;;;15.48;;
78484;SDS011;67773;50.806;8.776;2024-03-08T06:44:51;32.78;;;14.88;;
78484;SDS011;67773;50.806;8.776;2024-03-08T06:47:16;35.57;;;15.60;;
78484;SDS011;67773;50.806;8.776;2024-03-08T06:49:42;36.93;;;15.70;;
78484;SDS011;67773;50.806;8.776;2024-03-08T06:52:08;30.10;;;13.80;;
78484;SDS011;67773;50.806;8.776;2024-03-08T06:54:34;33.35;;;15.60;;
78484;SDS011;67773;50.806;8.776;2024-03-08T06:57:04;33.88;;;15.40;;
78484;SDS011;67773;50.806;8.776;2024-03-08T06:59:33;32.25;;;15.68;;
78484;SDS011;67773;50.806;8.776;2024-03-08T07:02:00;31.40;;;14.73;;
78484;SDS011;67773;50.806;8.776;2024-03-08T07:04:26;34.42;;;15.65;;
78484;SDS011;67773;50.806;8.776;2024-03-08T07:06:57;32.50;;;14.98;;
78484;SDS011;67773;50.806;8.776;2024-03-08T07:09:23;30.85;;;14.38;;
78484;SDS011;67773;50.806;8.776;2024-03-08T07:11:49;29.42;;;14.82;;
78484;SDS011;67773;50.806;8.776;2024-03-08T07:14:20;31.15;;;13.65;;
78484;SDS011;67773;50.806;8.776;2024-03-08T07:16:46;35.13;;;14.68;;
78484;SDS011;67773;50.806;8.776;2024-03-08T07:19:12;31.63;;;15.85;;
78484;SDS011;67773;50.806;8.776;2024-03-08T07:21:37;33.97;;;15.97;;
78484;SDS011;67773;50.806;8.776;2024-03-08T07:24:03;30.98;;;14.70;;
78484;SDS011;67773;50.806;8.776;2024-03-08T07:26:43;31.30;;;14.45;;
78484;SDS011;67773;50.806;8.776;2024-03-08T07:29:09;32.15;;;14.48;;
78484;SDS011;67773;50.806;8.776;2024-03-08T07:31:34;30.38;;;15.38;;
78484;SDS011;67773;50.806;8.776;2024-03-08T07:34:15;29.55;;;15.35;;
78484;SDS011;67773;50.806;8.776;2024-03-08T07:36:41;34.92;;;14.57;;
78484;SDS011;67773;50.806;8.776;2024-03-08T07:39:07;27.98;;;13.52;;
78484;SDS011;67773;50.806;8.776;2024-03-08T07:41:36;31.77;;;15.30;;
78484;SDS011;67773;50.806;8.776;2024-03-08T07:44:02;29.00;;;12.93;;
78484;SDS011;67773;50.806;8.776;2024-03-08T07:46:28;31.48;;;13.93;;
78484;SDS011;67773;50.806;8.776;2024-03-08T07:48:54;31.25;;;12.68;;
78484;SDS011;67773;50.806;8.776;2024-03-08T07:51:19;29.30;;;13.52;;
78484;SDS011;67773;50.806;8.776;2024-03-08T07:53:45;27.05;;;13.98;;
78484;SDS011;67773;50.806;8.776;2024-03-08T07:56:11;29.83;;;13.48;;
78484;SDS011;67773;50.806;8.776;2024-03-08T07:58:38;31.55;;;14.68;;
78484;SDS011;67773;50.806;8.776;2024-03-08T08:01:05;28.35;;;12.93;;
78484;SDS011;67773;50.806;8.776;2024-03-08T08:03:31;27.63;;;13.70;;
78484;SDS011;67773;50.806;8.776;2024-03-08T08:05:56;28.80;;;14.03;;
78484;SDS011;67773;50.806;8.776;2024-03-08T08:08:21;28.80;;;14.20;;
78484;SDS011;67773;50.806;8.776;2024-03-08T08:10:47;35.43;;;16.03;;
78484;SDS011;67773;50.806;8.776;2024-03-08T08:13:12;28.77;;;14.47;;
78484;SDS011;67773;50.806;8.776;2024-03-08T08:15:37;26.80;;;13.33;;
78484;SDS011;67773;50.806;8.776;2024-03-08T08:18:03;28.67;;;14.50;;
78484;SDS011;67773;50.806;8.776;2024-03-08T08:20:30;28.98;;;16.00;;
78484;SDS011;67773;50.806;8.776;2024-03-08T08:22:56;30.90;;;14.07;;
78484;SDS011;67773;50.806;8.776;2024-03-08T08:25:21;30.15;;;14.07;;
78484;SDS011;67773;50.806;8.776;2024-03-08T08:27:49;31.27;;;14.07;;
78484;SDS011;67773;50.806;8.776;2024-03-08T08:30:14;32.15;;;13.85;;
78484;SDS011;67773;50.806;8.776;2024-03-08T08:32:40;27.30;;;14.18;;
78484;SDS011;67773;50.806;8.776;2024-03-08T08:35:07;28.42;;;13.60;;
78484;SDS011;67773;50.806;8.776;2024-03-08T08:37:38;30.23;;;15.27;;
78484;SDS011;67773;50.806;8.776;2024-03-08T08:40:04;30.52;;;14.40;;
78484;SDS011;67773;50.806;8.776;2024-03-08T08:42:39;28.70;;;14.20;;
78484;SDS011;67773;50.806;8.776;2024-03-08T08:45:05;33.10;;;15.02;;
78484;SDS011;67773;50.806;8.776;2024-03-08T08:47:36;29.27;;;13.13;;
78484;SDS011;67773;50.806;8.776;2024-03-08T08:50:02;27.42;;;13.27;;
78484;SDS011;67773;50.806;8.776;2024-03-08T08:52:30;24.10;;;12.63;;
78484;SDS011;67773;50.806;8.776;2024-03-08T08:54:56;26.33;;;12.75;;
78484;SDS011;67773;50.806;8.776;2024-03-08T08:57:22;25.83;;;12.68;;
78484;SDS011;67773;50.806;8.776;2024-03-08T08:59:47;25.88;;;13.63;;
78484;SDS011;67773;50.806;8.776;2024-03-08T09:02:13;26.30;;;13.23;;
78484;SDS011;67773;50.806;8.776;2024-03-08T09:04:39;24.95;;;12.90;;
78484;SDS011;67773;50.806;8.776;2024-03-08T09:07:04;25.45;;;12.77;;
78484;SDS011;67773;50.806;8.776;2024-03-08T09:09:32;23.35;;;12.85;;
78484;SDS011;67773;50.806;8.776;2024-03-08T09:11:58;23.08;;;12.90;;
78484;SDS011;67773;50.806;8.776;2024-03-08T09:14:23;25.87;;;13.30;;
78484;SDS011;67773;50.806;8.776;2024-03-08T09:16:51;23.95;;;13.38;;
78484;SDS011;67773;50.806;8.776;2024-03-08T09:19:16;26.75;;;13.45;;
78484;SDS011;67773;50.806;8.776;2024-03-08T09:21:42;23.15;;;12.57;;
78484;SDS011;67773;50.806;8.776;2024-03-08T09:24:07;26.02;;;12.60;;
78484;SDS011;67773;50.806;8.776;2024-03-08T09:26:33;22.80;;;12.18;;
78484;SDS011;67773;50.806;8.776;2024-03-08T09:28:58;27.02;;;12.73;;
78484;SDS011;67773;50.806;8.776;2024-03-08T09:31:24;26.70;;;12.32;;
78484;SDS011;67773;50.806;8.776;2024-03-08T09:33:50;20.85;;;11.77;;
78484;SDS011;67773;50.806;8.776;2024-03-08T09:36:16;24.58;;;12.93;;
78484;SDS011;67773;50.806;8.776;2024-03-08T09:38:42;23.67;;;13.05;;
78484;SDS011;67773;50.806;8.776;2024-03-08T09:41:07;22.80;;;12.10;;
78484;SDS011;67773;50.806;8.776;2024-03-08T09:43:34;23.95;;;12.50;;
78484;SDS011;67773;50.806;8.776;2024-03-08T09:46:00;19.90;;;11.48;;
78484;SDS011;67773;50.806;8.776;2024-03-08T09:48:25;21.10;;;11.07;;
78484;SDS011;67773;50.806;8.776;2024-03-08T09:50:51;21.63;;;11.32;;
78484;SDS011;67773;50.806;8.776;2024-03-08T09:53:17;20.42;;;11.02;;
78484;SDS011;67773;50.806;8.776;2024-03-08T09:55:42;18.50;;;11.35;;
78484;SDS011;67773;50.806;8.776;2024-03-08T09:58:19;21.73;;;11.73;;
78484;SDS011;67773;50.806;8.776;2024-03-08T10:00:44;19.33;;;12.63;;
78484;SDS011;67773;50.806;8.776;2024-03-08T10:03:10;20.80;;;12.43;;
78484;SDS011;67773;50.806;8.776;2024-03-08T10:05:36;21.20;;;12.60;;
78484;SDS011;67773;50.806;8.776;2024-03-08T10:08:02;20.55;;;12.38;;
78484;SDS011;67773;50.806;8.776;2024-03-08T10:10:27;23.95;;;12.63;;
78484;SDS011;67773;50.806;8.776;2024-03-08T10:12:53;22.13;;;12.80;;
78484;SDS011;67773;50.806;8.776;2024-03-08T10:15:20;18.45;;;11.65;;
78484;SDS011;67773;50.806;8.776;2024-03-08T10:17:45;19.13;;;11.60;;
78484;SDS011;67773;50.806;8.776;2024-03-08T10:20:17;19.90;;;11.90;;
78484;SDS011;67773;50.806;8.776;2024-03-08T10:22:43;18.55;;;11.68;;
78484;SDS011;67773;50.806;8.776;2024-03-08T10:25:12;19.35;;;11.15;;
78484;SDS011;67773;50.806;8.776;2024-03-08T10:27:41;16.98;;;10.38;;
78484;SDS011;67773;50.806;8.776;2024-03-08T10:30:14;18.50;;;11.65;;
78484;SDS011;67773;50.806;8.776;2024-03-08T10:32:44;18.42;;;11.35;;
78484;SDS011;67773;50.806;8.776;2024-03-08T10:35:10;16.83;;;10.07;;
78484;SDS011;67773;50.806;8.776;2024-03-08T10:37:41;16.80;;;10.35;;
78484;SDS011;67773;50.806;8.776;2024-03-08T10:40:12;16.45;;;11.32;;
78484;SDS011;67773;50.806;8.776;2024-03-08T10:45:23;16.35;;;11.07;;
78484;SDS011;67773;50.806;8.776;2024-03-08T10:48:03;17.48;;;10.55;;
78484;SDS011;67773;50.806;8.776;2024-03-08T10:50:35;16.58;;;10.68;;
78484;SDS011;67773;50.806;8.776;2024-03-08T10:53:03;18.00;;;11.27;;
78484;SDS011;67773;50.806;8.776;2024-03-08T10:55:31;16.50;;;9.50;;
78484;SDS011;67773;50.806;8.776;2024-03-08T10:57:58;15.35;;;9.35;;
78484;SDS011;67773;50.806;8.776;2024-03-08T11:00:25;17.90;;;10.13;;
78484;SDS011;67773;50.806;8.776;2024-03-08T11:02:52;17.02;;;9.68;;
78484;SDS011;67773;50.806;8.776;2024-03-08T11:05:31;15.30;;;9.23;;
78484;SDS011;67773;50.806;8.776;2024-03-08T11:10:46;16.70;;;9.63;;
78484;SDS011;67773;50.806;8.776;2024-03-08T11:13:33;15.10;;;8.80;;
78484;SDS011;67773;50.806;8.776;2024-03-08T11:16:06;15.27;;;8.90;;
78484;SDS011;67773;50.806;8.776;2024-03-08T11:21:03;18.52;;;10.32;;
78484;SDS011;67773;50.806;8.776;2024-03-08T11:23:37;15.25;;;8.95;;
78484;SDS011;67773;50.806;8.776;2024-03-08T11:26:17;16.77;;;9.38;;
78484;SDS011;67773;50.806;8.776;2024-03-08T11:28:48;17.83;;;9.45;;
78484;SDS011;67773;50.806;8.776;2024-03-08T11:33:46;15.02;;;8.77;;
78484;SDS011;67773;50.806;8.776;2024-03-08T11:36:22;16.95;;;9.00;;
78484;SDS011;67773;50.806;8.776;2024-03-08T11:38:49;14.85;;;8.73;;
78484;SDS011;67773;50.806;8.776;2024-03-08T11:41:18;17.20;;;9.63;;
78484;SDS011;67773;50.806;8.776;2024-03-08T11:43:47;17.00;;;9.57;;
78484;SDS011;67773;50.806;8.776;2024-03-08T11:46:14;14.55;;;8.60;;
78484;SDS011;67773;50.806;8.776;2024-03-08T11:48:42;15.55;;;9.13;;
78484;SDS011;67773;50.806;8.776;2024-03-08T11:51:09;13.10;;;8.68;;
78484;SDS011;67773;50.806;8.776;2024-03-08T11:53:39;13.68;;;8.90;;
78484;SDS011;67773;50.806;8.776;2024-03-08T11:56:06;15.70;;;9.32;;
78484;SDS011;67773;50.806;8.776;2024-03-08T11:58:36;15.82;;;10.00;;
78484;SDS011;67773;50.806;8.776;2024-03-08T12:01:08;15.48;;;9.30;;
78484;SDS011;67773;50.806;8.776;2024-03-08T12:03:40;13.63;;;8.07;;
78484;SDS011;67773;50.806;8.776;2024-03-08T12:06:09;12.65;;;8.30;;
78484;SDS011;67773;50.806;8.776;2024-03-08T12:08:36;13.75;;;8.82;;
78484;SDS011;67773;50.806;8.776;2024-03-08T12:11:03;13.63;;;8.23;;
78484;SDS011;67773;50.806;8.776;2024-03-08T12:13:30;14.63;;;8.05;;
78484;SDS011;67773;50.806;8.776;2024-03-08T12:15:57;13.55;;;8.07;;
78484;SDS011;67773;50.806;8.776;2024-03-08T12:18:24;13.02;;;8.30;;
78484;SDS011;67773;50.806;8.776;2024-03-08T12:20:51;14.80;;;8.50;;
78484;SDS011;67773;50.806;8.776;2024-03-08T12:23:16;14.55;;;8.02;;
78484;SDS011;67773;50.806;8.776;2024-03-08T12:25:42;14.85;;;8.25;;
78484;SDS011;67773;50.806;8.776;2024-03-08T12:28:11;13.10;;;8.63;;
78484;SDS011;67773;50.806;8.776;2024-03-08T12:30:51;15.45;;;8.73;;
78484;SDS011;67773;50.806;8.776;2024-03-08T12:33:19;15.05;;;8.65;;
78484;SDS011;67773;50.806;8.776;2024-03-08T12:35:54;13.18;;;8.00;;
78484;SDS011;67773;50.806;8.776;2024-03-08T12:38:20;13.75;;;8.25;;
78484;SDS011;67773;50.806;8.776;2024-03-08T12:40:55;14.93;;;8.27;;
78484;SDS011;67773;50.806;8.776;2024-03-08T12:43:23;15.90;;;8.48;;
78484;SDS011;67773;50.806;8.776;2024-03-08T12:45:48;14.13;;;8.23;;
78484;SDS011;67773;50.806;8.776;2024-03-08T12:48:14;14.67;;;7.70;;
78484;SDS011;67773;50.806;8.776;2024-03-08T12:50:40;12.43;;;7.43;;
78484;SDS011;67773;50.806;8.776;2024-03-08T12:53:08;12.95;;;7.43;;
78484;SDS011;67773;50.806;8.776;2024-03-08T12:55:34;10.57;;;7.15;;
78484;SDS011;67773;50.806;8.776;2024-03-08T12:57:59;10.55;;;7.63;;
78484;SDS011;67773;50.806;8.776;2024-03-08T13:00:25;11.73;;;7.57;;
78484;SDS011;67773;50.806;8.776;2024-03-08T13:02:53;13.18;;;7.88;;
78484;SDS011;67773;50.806;8.776;2024-03-08T13:05:18;12.15;;;7.70;;
78484;SDS011;67773;50.806;8.776;2024-03-08T13:07:45;13.25;;;7.82;;
78484;SDS011;67773;50.806;8.776;2024-03-08T13:10:11;12.80;;;8.15;;
78484;SDS011;67773;50.806;8.776;2024-03-08T13:12:39;12.77;;;7.20;;
78484;SDS011;67773;50.806;8.776;2024-03-08T13:15:06;11.48;;;8.10;;
78484;SDS011;67773;50.806;8.776;2024-03-08T13:17:33;12.23;;;7.70;;
78484;SDS011;67773;50.806;8.776;2024-03-08T13:19:59;11.67;;;7.20;;
78484;SDS011;67773;50.806;8.776;2024-03-08T13:22:24;10.40;;;7.13;;
78484;SDS011;67773;50.806;8.776;2024-03-08T13:24:49;13.18;;;8.60;;
78484;SDS011;67773;50.806;8.776;2024-03-08T13:27:17;11.43;;;7.45;;
78484;SDS011;67773;50.806;8.776;2024-03-08T13:29:47;12.52;;;7.55;;
78484;SDS011;67773;50.806;8.776;2024-03-08T13:32:15;11.98;;;7.32;;
78484;SDS011;67773;50.806;8.776;2024-03-08T13:34:42;12.52;;;7.90;;
78484;SDS011;67773;50.806;8.776;2024-03-08T13:37:10;12.80;;;7.43;;
78484;SDS011;67773;50.806;8.776;2024-03-08T13:39:36;13.25;;;7.82;;
78484;SDS011;67773;50.806;8.776;2024-03-08T13:42:11;13.20;;;7.75;;
78484;SDS011;67773;50.806;8.776;2024-03-08T13:44:44;13.63;;;7.57;;
78484;SDS011;67773;50.806;8.776;2024-03-08T13:47:18;11.63;;;7.05;;
78484;SDS011;67773;50.806;8.776;2024-03-08T13:52:09;12.95;;;7.45;;
78484;SDS011;67773;50.806;8.776;2024-03-08T13:54:35;13.35;;;7.68;;
78484;SDS011;67773;50.806;8.776;2024-03-08T13:57:01;11.90;;;7.05;;
78484;SDS011;67773;50.806;8.776;2024-03-08T13:59:31;13.73;;;7.60;;
78484;SDS011;67773;50.806;8.776;2024-03-08T14:01:58;13.25;;;6.75;;
78484;SDS011;67773;50.806;8.776;2024-03-08T14:04:28;12.18;;;6.65;;
78484;SDS011;67773;50.806;8.776;2024-03-08T14:06:53;11.23;;;6.50;;
78484;SDS011;67773;50.806;8.776;2024-03-08T14:09:26;13.50;;;7.70;;
78484;SDS011;67773;50.806;8.776;2024-03-08T14:11:53;15.05;;;7.45;;
78484;SDS011;67773;50.806;8.776;2024-03-08T14:14:20;14.15;;;7.68;;
78484;SDS011;67773;50.806;8.776;2024-03-08T14:16:48;12.48;;;7.13;;
78484;SDS011;67773;50.806;8.776;2024-03-08T14:19:14;12.95;;;7.85;;
78484;SDS011;67773;50.806;8.776;2024-03-08T14:21:40;11.73;;;6.13;;
78484;SDS011;67773;50.806;8.776;2024-03-08T14:24:07;14.35;;;7.18;;
78484;SDS011;67773;50.806;8.776;2024-03-08T14:26:32;12.32;;;7.13;;
78484;SDS011;67773;50.806;8.776;2024-03-08T14:28:59;13.40;;;6.82;;
78484;SDS011;67773;50.806;8.776;2024-03-08T14:31:24;13.35;;;7.85;;
78484;SDS011;67773;50.806;8.776;2024-03-08T14:33:51;14.65;;;7.22;;
78484;SDS011;67773;50.806;8.776;2024-03-08T14:36:19;14.73;;;8.20;;
78484;SDS011;67773;50.806;8.776;2024-03-08T14:38:48;15.32;;;7.57;;